createdAt,value
2019-05-07T00:00:01.482Z,28.57
2019-05-07T00:01:03.787Z,28.55
2019-05-07T00:02:05.995Z,28.72
2019-05-07T00:03:08.657Z,28.85
2019-05-07T00:04:10.723Z,28.67
2019-05-07T00:05:12.991Z,28.71
2019-05-07T00:06:15.213Z,28.71
2019-05-07T00:07:17.515Z,28.74
2019-05-07T00:08:19.757Z,28.73
2019-05-07T00:09:22.017Z,28.71
2019-05-07T00:10:24.455Z,28.69
2019-05-07T00:11:26.625Z,28.59
2019-05-07T00:12:29.452Z,28.59
2019-05-07T00:13:31.074Z,28.65
2019-05-07T00:14:33.356Z,28.66
2019-05-07T00:15:35.623Z,28.52
2019-05-07T00:16:37.993Z,28.63
2019-05-07T00:17:40.196Z,28.46
2019-05-07T00:18:42.670Z,28.43
2019-05-07T00:19:46.523Z,28.41
2019-05-07T00:20:47.075Z,28.32
2019-05-07T00:21:49.280Z,28.27
2019-05-07T00:22:51.599Z,28.38
2019-05-07T00:23:53.861Z,28.24
2019-05-07T00:24:56.174Z,28.25
2019-05-07T00:25:58.793Z,28.13
2019-05-07T00:27:00.765Z,28.14
2019-05-07T00:28:03.003Z,28.18
2019-05-07T00:29:05.383Z,28.2
2019-05-07T00:30:07.596Z,28.04
2019-05-07T00:31:09.988Z,28.08
2019-05-07T00:32:12.132Z,28.22
2019-05-07T00:33:14.548Z,28.19
2019-05-07T00:34:16.664Z,28.09
2019-05-07T00:35:18.926Z,28.07
2019-05-07T00:36:21.210Z,28.06
2019-05-07T00:37:23.459Z,28.21
2019-05-07T00:38:25.817Z,28.06
2019-05-07T00:39:28.141Z,28.14
2019-05-07T00:40:30.289Z,28.15
2019-05-07T00:41:32.575Z,28.19
2019-05-07T00:42:34.839Z,28.15
2019-05-07T00:44:39.372Z,28.11
2019-05-07T00:45:41.757Z,27.99
2019-05-07T00:46:43.909Z,28
2019-05-07T00:47:46.215Z,28.07
2019-05-07T00:48:48.486Z,27.98
2019-05-07T00:49:50.749Z,28.27
2019-05-07T00:50:53.023Z,28.02
2019-05-07T00:51:55.285Z,28.14
2019-05-07T00:52:57.567Z,28.05
2019-05-07T00:53:59.827Z,28.04
2019-05-07T00:55:02.293Z,28.09
2019-05-07T00:56:04.388Z,28.04
2019-05-07T00:57:06.920Z,28.17
2019-05-07T00:58:08.932Z,28.04
2019-05-07T00:59:11.200Z,27.98
2019-05-07T01:00:13.612Z,28
2019-05-07T01:01:15.770Z,28.13
2019-05-07T01:02:18.053Z,28.06
2019-05-07T01:03:20.321Z,28.1
2019-05-07T01:04:22.679Z,27.99
2019-05-07T01:05:24.863Z,27.99
2019-05-07T01:06:27.131Z,28.08
2019-05-07T01:07:29.399Z,28.11
2019-05-07T01:08:31.762Z,28.21
2019-05-07T01:09:33.954Z,28.13
2019-05-07T01:10:36.215Z,28.09
2019-05-07T01:11:38.501Z,28.06
2019-05-07T01:12:40.986Z,28.12
2019-05-07T01:13:43.079Z,28.09
2019-05-07T01:14:45.420Z,28.16
2019-05-07T01:15:47.632Z,28.08
2019-05-07T01:16:49.989Z,28.22
2019-05-07T01:17:52.271Z,28.22
2019-05-07T01:18:54.441Z,28.04
2019-05-07T01:19:56.705Z,28.09
2019-05-07T01:20:59.064Z,28.11
2019-05-07T01:22:01.265Z,28.13
2019-05-07T01:23:03.614Z,28.15
2019-05-07T01:24:05.944Z,28.08
2019-05-07T01:26:13.963Z,28.09
2019-05-07T01:27:13.093Z,28.09
2019-05-07T01:28:15.630Z,28.15
2019-05-07T01:29:17.339Z,28.12
2019-05-07T01:30:21.588Z,28.25
2019-05-07T01:31:21.837Z,28.24
2019-05-07T01:32:24.168Z,28.16
2019-05-07T01:33:26.431Z,28.14
2019-05-07T01:34:28.661Z,28.12
2019-05-07T01:35:30.974Z,28.16
2019-05-07T01:36:33.304Z,28.09
2019-05-07T01:37:35.473Z,28.14
2019-05-07T01:38:37.789Z,28.04
2019-05-07T01:39:40.241Z,28.05
2019-05-07T01:40:42.294Z,28.14
2019-05-07T01:41:44.576Z,28.18
2019-05-07T01:42:46.935Z,28.17
2019-05-07T01:43:49.167Z,28.11
2019-05-07T01:44:51.445Z,28.16
2019-05-07T01:45:53.867Z,28.07
2019-05-07T01:46:55.934Z,28.03
2019-05-07T01:47:58.237Z,28.11
2019-05-07T01:49:00.539Z,28.16
2019-05-07T01:50:02.851Z,28.06
2019-05-07T01:51:05.058Z,28.03
2019-05-07T01:52:07.307Z,28.02
2019-05-07T01:53:09.618Z,28.19
2019-05-07T01:54:11.865Z,28.09
2019-05-07T01:55:14.181Z,28.09
2019-05-07T01:56:16.863Z,28.06
2019-05-07T01:57:18.801Z,28.08
2019-05-07T01:58:20.947Z,28.13
2019-05-07T01:59:23.376Z,28.05
2019-05-07T02:01:27.757Z,28.08
2019-05-07T02:02:30.030Z,28.11
2019-05-07T02:03:32.356Z,28.09
2019-05-07T02:04:38.747Z,28.15
2019-05-07T02:05:36.982Z,28.1
2019-05-07T02:06:39.228Z,28.14
2019-05-07T02:07:41.602Z,28.12
2019-05-07T02:08:43.853Z,28.08
2019-05-07T02:09:46.048Z,28.04
2019-05-07T02:10:48.339Z,28.16
2019-05-07T02:11:50.619Z,28.1
2019-05-07T02:12:52.890Z,28.08
2019-05-07T02:13:55.452Z,28.08
2019-05-07T02:14:57.477Z,28.12
2019-05-07T02:15:59.740Z,28.26
2019-05-07T02:17:01.977Z,28.21
2019-05-07T02:18:04.319Z,28.24
2019-05-07T02:19:06.686Z,28.14
2019-05-07T02:20:08.790Z,28.22
2019-05-07T02:21:11.092Z,28.04
2019-05-07T02:22:13.346Z,28.05
2019-05-07T02:23:15.717Z,28.26
2019-05-07T02:24:18.016Z,28.33
2019-05-07T02:25:20.266Z,28.28
2019-05-07T02:26:27.572Z,28.2
2019-05-07T02:27:24.695Z,28.12
2019-05-07T02:28:27.139Z,28.22
2019-05-07T02:29:29.352Z,28.2
2019-05-07T02:30:31.558Z,28.18
2019-05-07T02:31:33.950Z,28.21
2019-05-07T02:32:37.509Z,28.13
2019-05-07T02:33:38.371Z,28.02
2019-05-07T02:34:40.641Z,28.05
2019-05-07T02:35:42.989Z,28.11
2019-05-07T02:36:45.272Z,28.2
2019-05-07T02:37:47.459Z,28.1
2019-05-07T02:38:51.614Z,28.16
2019-05-07T02:39:52.027Z,28.05
2019-05-07T02:40:54.342Z,28.02
2019-05-07T02:41:56.636Z,28
2019-05-07T02:42:58.815Z,28.11
2019-05-07T02:44:01.159Z,28.26
2019-05-07T02:45:03.387Z,28.14
2019-05-07T02:46:05.753Z,28.13
2019-05-07T02:47:08.024Z,28.24
2019-05-07T02:48:10.191Z,28.29
2019-05-07T02:49:12.672Z,28.14
2019-05-07T02:50:14.749Z,28.19
2019-05-07T02:51:17.043Z,28.19
2019-05-07T02:52:19.311Z,28.22
2019-05-07T02:53:21.623Z,28.22
2019-05-07T02:54:23.863Z,28.2
2019-05-07T02:55:26.203Z,28.26
2019-05-07T02:57:30.657Z,28.16
2019-05-07T02:58:32.944Z,28.27
2019-05-07T02:59:35.357Z,28.11
2019-05-07T03:00:37.485Z,28.18
2019-05-07T03:02:42.018Z,28.42
2019-05-07T03:03:44.592Z,28.39
2019-05-07T03:04:46.903Z,28.21
2019-05-07T03:05:48.945Z,28.35
2019-05-07T03:06:51.290Z,28.31
2019-05-07T03:07:53.525Z,28.36
2019-05-07T03:08:55.745Z,28.5
2019-05-07T03:09:58.055Z,28.23
2019-05-07T03:11:00.303Z,28.21
2019-05-07T03:12:03.096Z,28.18
2019-05-07T03:13:04.995Z,28.19
2019-05-07T03:14:07.286Z,28.12
2019-05-07T03:15:09.514Z,28.07
2019-05-07T03:16:11.745Z,28.14
2019-05-07T03:17:13.920Z,28.5
2019-05-07T03:18:16.286Z,28.4
2019-05-07T03:19:18.648Z,28.23
2019-05-07T03:20:20.746Z,28.33
2019-05-07T03:21:23.116Z,28.34
2019-05-07T03:22:25.293Z,28.25
2019-05-07T03:23:27.641Z,28.16
2019-05-07T03:24:29.834Z,28.6
2019-05-07T03:25:33.601Z,28.28
2019-05-07T03:26:36.722Z,28.13
2019-05-07T03:27:36.742Z,28.1
2019-05-07T03:28:38.912Z,28.1
2019-05-07T03:29:41.247Z,28.16
2019-05-07T03:30:43.593Z,28.18
2019-05-07T03:31:45.829Z,28.13
2019-05-07T03:32:48.057Z,28.15
2019-05-07T03:33:50.313Z,28.29
2019-05-07T03:34:52.603Z,28.4
2019-05-07T03:35:54.845Z,28.27
2019-05-07T03:36:57.136Z,28.29
2019-05-07T03:37:59.406Z,28.36
2019-05-07T03:39:01.665Z,28.37
2019-05-07T03:40:03.943Z,28.29
2019-05-07T03:41:06.224Z,28.3
2019-05-07T03:42:08.487Z,28.47
2019-05-07T03:43:10.792Z,28.13
2019-05-07T03:44:13.023Z,28.24
2019-05-07T03:45:15.292Z,28.17
2019-05-07T03:46:17.564Z,28.3
2019-05-07T03:47:19.942Z,28.32
2019-05-07T03:48:22.145Z,28.36
2019-05-07T03:49:24.388Z,28.23
2019-05-07T03:50:26.767Z,28.12
2019-05-07T03:51:28.956Z,28.29
2019-05-07T03:52:31.215Z,28.34
2019-05-07T03:53:33.501Z,28.32
2019-05-07T03:54:35.810Z,28.22
2019-05-07T03:55:41.067Z,28.33
2019-05-07T03:56:42.644Z,28.24
2019-05-07T03:57:42.564Z,28.25
2019-05-07T03:58:44.884Z,28.15
2019-05-07T03:59:47.111Z,28.31
2019-05-07T04:00:51.859Z,28.41
2019-05-07T04:01:51.738Z,28.3
2019-05-07T04:02:53.942Z,28.38
2019-05-07T04:03:56.236Z,28.31
2019-05-07T04:04:58.497Z,28.26
2019-05-07T04:06:00.818Z,28.33
2019-05-07T04:07:03.151Z,28.31
2019-05-07T04:08:05.357Z,28.32
2019-05-07T04:09:07.677Z,28.27
2019-05-07T04:10:09.907Z,28.45
2019-05-07T04:11:12.212Z,28.4
2019-05-07T04:12:14.476Z,28.43
2019-05-07T04:13:16.785Z,28.39
2019-05-07T04:14:19.014Z,28.31
2019-05-07T04:15:21.273Z,28.19
2019-05-07T04:16:23.623Z,28.41
2019-05-07T04:17:26.061Z,28.28
2019-05-07T04:18:28.107Z,28.31
2019-05-07T04:19:30.370Z,28.21
2019-05-07T04:20:32.878Z,28.16
2019-05-07T04:21:34.906Z,28.12
2019-05-07T04:22:37.321Z,28.25
2019-05-07T04:23:39.709Z,28.09
2019-05-07T04:24:41.752Z,28.31
2019-05-07T04:25:44.236Z,28.14
2019-05-07T04:26:46.527Z,28.17
2019-05-07T04:27:48.593Z,28.22
2019-05-07T04:28:50.820Z,28.16
2019-05-07T04:29:53.197Z,28.24
2019-05-07T04:30:55.495Z,28.14
2019-05-07T04:31:57.643Z,28.29
2019-05-07T04:32:59.913Z,28.08
2019-05-07T04:34:02.249Z,28.31
2019-05-07T04:35:04.474Z,28.25
2019-05-07T04:36:06.906Z,28.05
2019-05-07T04:37:09.150Z,28.05
2019-05-07T04:38:11.327Z,28.06
2019-05-07T04:39:13.642Z,28.1
2019-05-07T04:40:15.892Z,28.35
2019-05-07T04:41:20.661Z,28
2019-05-07T04:42:20.371Z,28.21
2019-05-07T04:43:22.857Z,28.27
2019-05-07T04:44:25.033Z,28.09
2019-05-07T04:45:27.174Z,28.05
2019-05-07T04:46:29.467Z,28.12
2019-05-07T04:47:31.772Z,28.34
2019-05-07T04:48:34.091Z,28.21
2019-05-07T04:49:36.318Z,28.25
2019-05-07T04:50:38.543Z,28.05
2019-05-07T04:51:40.997Z,28.34
2019-05-07T04:52:43.130Z,28.1
2019-05-07T04:53:45.392Z,28
2019-05-07T04:54:47.628Z,28.17
2019-05-07T04:55:50.114Z,28.15
2019-05-07T04:56:52.437Z,28.22
2019-05-07T04:57:54.445Z,28.22
2019-05-07T04:58:56.717Z,27.95
2019-05-07T04:59:59.137Z,28.01
2019-05-07T05:01:01.269Z,28.18
2019-05-07T05:02:03.627Z,28.06
2019-05-07T05:03:05.801Z,27.98
2019-05-07T05:04:08.170Z,28.1
2019-05-07T05:05:10.375Z,27.99
2019-05-07T05:06:12.653Z,28.14
2019-05-07T05:07:14.989Z,28.16
2019-05-07T05:08:17.413Z,27.98
2019-05-07T05:09:19.559Z,28.28
2019-05-07T05:10:21.917Z,28.13
2019-05-07T05:11:24.165Z,28.89
2019-05-07T05:12:26.367Z,28.37
2019-05-07T05:13:28.681Z,28.2
2019-05-07T05:14:31.010Z,27.9
2019-05-07T05:15:33.153Z,27.88
2019-05-07T05:16:35.420Z,27.91
2019-05-07T05:17:37.746Z,27.92
2019-05-07T05:18:40.142Z,27.82
2019-05-07T05:19:42.910Z,28.04
2019-05-07T05:20:44.585Z,30.11
2019-05-07T05:21:47.090Z,30.67
2019-05-07T05:22:49.091Z,30.84
2019-05-07T05:23:51.349Z,30.42
2019-05-07T05:24:53.736Z,30.47
2019-05-07T05:25:57.248Z,30.4
2019-05-07T05:26:58.254Z,30.42
2019-05-07T05:28:00.446Z,30.15
2019-05-07T05:29:02.689Z,29.7
2019-05-07T05:30:05.023Z,29.53
2019-05-07T05:31:07.327Z,28.88
2019-05-07T05:32:09.720Z,28.66
2019-05-07T05:33:11.953Z,28.38
2019-05-07T05:34:14.043Z,28.37
2019-05-07T05:35:16.355Z,28.14
2019-05-07T05:36:18.601Z,28.17
2019-05-07T05:37:20.883Z,28.01
2019-05-07T05:38:23.282Z,27.98
2019-05-07T05:39:25.530Z,27.88
2019-05-07T05:40:27.949Z,27.73
2019-05-07T05:41:30.065Z,27.82
2019-05-07T05:42:32.575Z,27.82
2019-05-07T05:43:34.693Z,27.79
2019-05-07T05:44:36.876Z,27.78
2019-05-07T05:45:39.142Z,27.73
2019-05-07T05:46:41.484Z,27.81
2019-05-07T05:47:43.779Z,27.73
2019-05-07T05:48:46.226Z,27.74
2019-05-07T05:49:48.268Z,27.77
2019-05-07T05:50:50.593Z,27.72
2019-05-07T05:51:53.034Z,27.72
2019-05-07T05:52:55.088Z,27.78
2019-05-07T05:53:57.370Z,27.63
2019-05-07T05:54:59.589Z,27.73
2019-05-07T05:56:02.000Z,27.71
2019-05-07T05:57:04.163Z,27.63
2019-05-07T05:58:06.594Z,27.67
2019-05-07T05:59:08.684Z,27.67
2019-05-07T06:00:11.025Z,27.61
2019-05-07T06:01:13.622Z,27.66
2019-05-07T06:02:15.505Z,27.59
2019-05-07T06:03:21.290Z,27.71
2019-05-07T06:04:20.055Z,27.53
2019-05-07T06:05:22.328Z,27.48
2019-05-07T06:06:24.595Z,27.67
2019-05-07T06:07:26.893Z,27.53
2019-05-07T06:08:29.161Z,27.51
2019-05-07T06:09:31.444Z,27.32
2019-05-07T06:10:33.686Z,27.18
2019-05-07T06:11:35.958Z,27.29
2019-05-07T06:12:38.266Z,27.16
2019-05-07T06:13:40.632Z,27.12
2019-05-07T06:14:42.856Z,27.23
2019-05-07T06:15:45.107Z,27.08
2019-05-07T06:16:47.310Z,27.21
2019-05-07T06:17:49.621Z,27.1
2019-05-07T06:18:52.033Z,27.28
2019-05-07T06:19:54.278Z,27.57
2019-05-07T06:20:56.425Z,27.39
2019-05-07T06:21:58.698Z,27.28
2019-05-07T06:23:01.005Z,27.37
2019-05-07T06:24:03.292Z,27.29
2019-05-07T06:25:05.536Z,27.44
2019-05-07T06:26:08.942Z,27.43
2019-05-07T06:27:10.081Z,27.39
2019-05-07T06:28:12.344Z,27.43
2019-05-07T06:29:14.667Z,27.38
2019-05-07T06:30:17.035Z,27.4
2019-05-07T06:31:19.171Z,27.35
2019-05-07T06:32:21.456Z,27.4
2019-05-07T06:33:23.755Z,27.4
2019-05-07T06:34:25.984Z,27.36
2019-05-07T06:35:28.224Z,27.34
2019-05-07T06:36:30.501Z,27.38
2019-05-07T06:37:32.861Z,27.38
2019-05-07T06:38:35.050Z,27.4
2019-05-07T06:39:37.342Z,27.41
2019-05-07T06:40:39.728Z,27.37
2019-05-07T06:41:42.035Z,27.38
2019-05-07T06:42:44.325Z,27.36
2019-05-07T06:43:46.499Z,27.39
2019-05-07T06:44:48.764Z,27.36
2019-05-07T06:45:51.051Z,27.38
2019-05-07T06:46:53.341Z,27.4
2019-05-07T06:47:55.717Z,27.36
2019-05-07T06:48:57.883Z,27.39
2019-05-07T06:50:00.174Z,27.37
2019-05-07T06:51:06.159Z,27.38
2019-05-07T06:52:04.709Z,27.37
2019-05-07T06:53:07.168Z,27.31
2019-05-07T06:54:09.237Z,27.33
2019-05-07T06:55:11.484Z,27.3
2019-05-07T06:56:15.046Z,27.38
2019-05-07T06:57:16.050Z,27.27
2019-05-07T06:58:22.573Z,27.33
2019-05-07T06:59:20.687Z,27.28
2019-05-07T07:00:23.056Z,27.24
2019-05-07T07:01:25.345Z,27.23
2019-05-07T07:02:27.490Z,27.18
2019-05-07T07:03:29.713Z,27.18
2019-05-07T07:04:32.127Z,27.15
2019-05-07T07:05:34.233Z,27.18
2019-05-07T07:06:36.529Z,27.13
2019-05-07T07:07:38.924Z,27.19
2019-05-07T07:08:41.042Z,27.15
2019-05-07T07:09:43.344Z,27.13
2019-05-07T07:10:45.618Z,27.07
2019-05-07T07:11:47.942Z,27
2019-05-07T07:12:50.115Z,26.97
2019-05-07T07:13:56.854Z,27.03
2019-05-07T07:14:54.743Z,26.93
2019-05-07T07:15:56.935Z,26.97
2019-05-07T07:16:59.212Z,27.07
2019-05-07T07:18:01.502Z,26.97
2019-05-07T07:19:03.769Z,26.99
2019-05-07T07:20:06.117Z,26.98
2019-05-07T07:21:08.443Z,27.02
2019-05-07T07:22:10.754Z,27.03
2019-05-07T07:23:12.909Z,26.97
2019-05-07T07:24:15.153Z,26.95
2019-05-07T07:25:17.604Z,26.92
2019-05-07T07:26:26.727Z,26.96
2019-05-07T07:27:22.002Z,26.94
2019-05-07T07:28:24.211Z,26.93
2019-05-07T07:29:26.593Z,26.93
2019-05-07T07:30:28.920Z,27.07
2019-05-07T07:31:31.195Z,26.95
2019-05-07T07:32:33.500Z,27.03
2019-05-07T07:33:35.795Z,27
2019-05-07T07:34:38.221Z,26.98
2019-05-07T07:35:40.240Z,27.03
2019-05-07T07:36:42.699Z,26.97
2019-05-07T07:37:44.869Z,26.97
2019-05-07T07:38:47.126Z,26.95
2019-05-07T07:39:49.351Z,26.97
2019-05-07T07:40:51.815Z,26.93
2019-05-07T07:41:53.922Z,26.97
2019-05-07T07:42:56.146Z,26.99
2019-05-07T07:43:59.504Z,26.98
2019-05-07T07:45:00.801Z,27.02
2019-05-07T07:46:03.057Z,27.02
2019-05-07T07:47:05.319Z,27
2019-05-07T07:48:07.642Z,27.02
2019-05-07T07:49:10.012Z,26.93
2019-05-07T07:50:12.667Z,26.9
2019-05-07T07:51:14.676Z,26.9
2019-05-07T07:52:16.715Z,26.9
2019-05-07T07:53:20.475Z,26.91
2019-05-07T07:54:21.248Z,27
2019-05-07T07:55:23.741Z,26.89
2019-05-07T07:56:29.910Z,26.88
2019-05-07T07:56:30.457Z,26.88
2019-05-07T07:57:28.062Z,26.91
2019-05-07T07:58:30.471Z,26.88
2019-05-07T07:59:36.337Z,26.86
2019-05-07T08:00:34.957Z,26.95
2019-05-07T08:01:37.161Z,26.86
2019-05-07T08:02:40.523Z,26.81
2019-05-07T08:03:41.741Z,26.83
2019-05-07T08:04:43.994Z,26.86
2019-05-07T08:05:46.366Z,26.75
2019-05-07T08:06:48.534Z,26.78
2019-05-07T08:07:51.433Z,26.79
2019-05-07T08:08:53.383Z,26.83
2019-05-07T08:09:55.335Z,26.77
2019-05-07T08:10:57.809Z,26.77
2019-05-07T08:11:59.942Z,26.82
2019-05-07T08:13:02.381Z,26.73
2019-05-07T08:14:04.438Z,26.79
2019-05-07T08:15:06.800Z,26.75
2019-05-07T08:16:08.988Z,26.74
2019-05-07T08:17:11.308Z,26.71
2019-05-07T08:18:13.587Z,26.74
2019-05-07T08:19:16.013Z,26.73
2019-05-07T08:20:18.067Z,26.74
2019-05-07T08:21:20.395Z,26.76
2019-05-07T08:22:22.651Z,26.72
2019-05-07T08:23:24.894Z,26.77
2019-05-07T08:24:27.143Z,26.76
2019-05-07T08:25:30.981Z,26.75
2019-05-07T08:26:33.302Z,26.71
2019-05-07T08:27:33.998Z,26.71
2019-05-07T08:28:36.249Z,26.64
2019-05-07T08:29:38.617Z,26.68
2019-05-07T08:30:41.122Z,26.65
2019-05-07T08:31:43.050Z,26.69
2019-05-07T08:32:50.714Z,26.61
2019-05-07T08:33:47.605Z,26.71
2019-05-07T08:34:49.891Z,26.64
2019-05-07T08:35:52.309Z,26.67
2019-05-07T08:36:54.416Z,26.61
2019-05-07T08:37:56.705Z,26.69
2019-05-07T08:38:58.999Z,26.61
2019-05-07T08:40:01.230Z,26.63
2019-05-07T08:41:08.291Z,26.65
2019-05-07T08:42:05.807Z,26.68
2019-05-07T08:43:08.093Z,26.63
2019-05-07T08:44:10.338Z,26.62
2019-05-07T08:45:12.598Z,26.67
2019-05-07T08:46:16.221Z,26.63
2019-05-07T08:47:17.180Z,26.64
2019-05-07T08:48:22.414Z,26.67
2019-05-07T08:49:21.786Z,26.67
2019-05-07T08:50:24.044Z,26.56
2019-05-07T08:51:26.448Z,26.6
2019-05-07T08:52:28.661Z,26.56
2019-05-07T08:53:30.867Z,26.7
2019-05-07T08:54:33.134Z,26.59
2019-05-07T08:55:36.526Z,26.57
2019-05-07T08:56:43.930Z,26.49
2019-05-07T08:57:39.954Z,26.45
2019-05-07T08:58:42.246Z,26.6
2019-05-07T08:59:44.547Z,26.5
2019-05-07T09:00:46.913Z,26.48
2019-05-07T09:01:49.138Z,26.43
2019-05-07T09:02:51.319Z,26.42
2019-05-07T09:03:53.762Z,26.42
2019-05-07T09:04:55.934Z,26.45
2019-05-07T09:05:58.256Z,26.51
2019-05-07T09:07:00.407Z,26.45
2019-05-07T09:08:02.686Z,26.44
2019-05-07T09:09:04.947Z,26.5
2019-05-07T09:10:07.241Z,26.45
2019-05-07T09:11:09.906Z,26.46
2019-05-07T09:12:11.828Z,26.54
2019-05-07T09:13:14.058Z,26.45
2019-05-07T09:14:16.309Z,26.41
2019-05-07T09:15:18.593Z,26.39
2019-05-07T09:16:22.365Z,26.37
2019-05-07T09:17:23.205Z,26.47
2019-05-07T09:18:25.522Z,26.37
2019-05-07T09:19:27.745Z,26.3
2019-05-07T09:20:30.146Z,26.31
2019-05-07T09:21:32.300Z,26.4
2019-05-07T09:22:34.484Z,26.44
2019-05-07T09:23:36.848Z,26.34
2019-05-07T09:24:39.049Z,26.25
2019-05-07T09:25:43.969Z,26.3
2019-05-07T09:26:45.695Z,26.42
2019-05-07T09:27:45.940Z,26.42
2019-05-07T09:28:48.127Z,26.43
2019-05-07T09:29:50.459Z,26.37
2019-05-07T09:30:52.799Z,26.35
2019-05-07T09:31:54.933Z,26.38
2019-05-07T09:32:57.397Z,26.48
2019-05-07T09:33:59.475Z,26.5
2019-05-07T09:35:01.743Z,26.47
2019-05-07T09:37:06.557Z,26.46
2019-05-07T09:38:08.659Z,26.43
2019-05-07T09:40:13.214Z,26.48
2019-05-07T09:41:15.771Z,26.49
2019-05-07T09:42:17.654Z,26.41
2019-05-07T09:43:19.945Z,26.44
2019-05-07T09:44:22.691Z,26.41
2019-05-07T09:45:24.635Z,26.53
2019-05-07T09:46:26.838Z,26.41
2019-05-07T09:47:29.014Z,26.4
2019-05-07T09:48:31.375Z,26.58
2019-05-07T09:49:33.645Z,26.42
2019-05-07T09:50:35.925Z,26.49
2019-05-07T09:51:38.267Z,26.5
2019-05-07T09:52:40.569Z,26.57
2019-05-07T09:53:42.844Z,26.41
2019-05-07T09:54:45.143Z,26.57
2019-05-07T09:55:47.521Z,26.57
2019-05-07T09:56:49.676Z,26.48
2019-05-07T09:57:52.024Z,26.5
2019-05-07T09:58:54.105Z,26.49
2019-05-07T09:59:56.366Z,26.45
2019-05-07T10:00:58.690Z,26.38
2019-05-07T10:02:00.936Z,26.46
2019-05-07T10:03:03.270Z,26.26
2019-05-07T10:04:05.544Z,26.44
2019-05-07T10:05:07.749Z,26.33
2019-05-07T10:06:10.009Z,26.31
2019-05-07T10:07:12.288Z,26.35
2019-05-07T10:08:14.579Z,26.35
2019-05-07T10:09:17.013Z,26.35
2019-05-07T10:10:19.103Z,26.34
2019-05-07T10:11:21.489Z,26.36
2019-05-07T10:12:23.794Z,26.3
2019-05-07T10:13:25.914Z,26.32
2019-05-07T10:14:28.381Z,26.3
2019-05-07T10:15:30.562Z,26.28
2019-05-07T10:16:32.727Z,26.46
2019-05-07T10:17:35.011Z,26.4
2019-05-07T10:18:37.273Z,26.41
2019-05-07T10:19:39.658Z,26.39
2019-05-07T10:20:41.868Z,26.45
2019-05-07T10:21:44.155Z,26.5
2019-05-07T10:22:46.371Z,26.34
2019-05-07T10:23:48.780Z,26.44
2019-05-07T10:24:50.985Z,26.35
2019-05-07T10:25:59.275Z,26.39
2019-05-07T10:26:55.691Z,26.4
2019-05-07T10:27:58.001Z,26.32
2019-05-07T10:29:00.026Z,26.31
2019-05-07T10:30:02.317Z,26.32
2019-05-07T10:31:04.554Z,26.33
2019-05-07T10:32:07.035Z,26.3
2019-05-07T10:33:09.116Z,26.19
2019-05-07T10:34:11.377Z,26.28
2019-05-07T10:35:13.655Z,26.25
2019-05-07T10:36:15.903Z,26.11
2019-05-07T10:37:18.247Z,26.13
2019-05-07T10:38:20.483Z,26.17
2019-05-07T10:39:23.716Z,26.26
2019-05-07T10:40:25.064Z,26.18
2019-05-07T10:41:27.395Z,26.34
2019-05-07T10:42:29.603Z,26.42
2019-05-07T10:43:31.976Z,26.35
2019-05-07T10:44:34.092Z,26.3
2019-05-07T10:45:36.459Z,26.25
2019-05-07T10:46:38.623Z,26.17
2019-05-07T10:47:40.919Z,26.2
2019-05-07T10:48:43.171Z,26.13
2019-05-07T10:49:45.531Z,26.17
2019-05-07T10:50:47.710Z,26.18
2019-05-07T10:51:50.027Z,26.24
2019-05-07T10:52:53.205Z,26.21
2019-05-07T10:53:54.701Z,26.19
2019-05-07T10:56:08.038Z,26.13
2019-05-07T10:57:10.826Z,26.31
2019-05-07T10:58:06.233Z,26.27
2019-05-07T10:59:06.084Z,26.2
2019-05-07T11:00:08.350Z,26.11
2019-05-07T11:01:10.569Z,26.19
2019-05-07T11:02:12.835Z,26.24
2019-05-07T11:03:15.084Z,26.2
2019-05-07T11:04:17.356Z,26.06
2019-05-07T11:05:19.883Z,26.22
2019-05-07T11:06:22.014Z,26.07
2019-05-07T11:07:24.168Z,26.07
2019-05-07T11:08:26.442Z,26.15
2019-05-07T11:09:28.728Z,26.01
2019-05-07T11:10:31.157Z,26.09
2019-05-07T11:11:33.382Z,26.04
2019-05-07T11:12:35.538Z,26.08
2019-05-07T11:13:38.010Z,26.02
2019-05-07T11:14:40.238Z,25.89
2019-05-07T11:15:42.472Z,26.05
2019-05-07T11:16:44.756Z,25.87
2019-05-07T11:17:46.991Z,26.13
2019-05-07T11:18:49.305Z,26.04
2019-05-07T11:19:51.676Z,25.92
2019-05-07T11:20:53.828Z,25.94
2019-05-07T11:21:56.150Z,25.85
2019-05-07T11:22:58.587Z,25.97
2019-05-07T11:24:00.700Z,25.92
2019-05-07T11:25:02.897Z,25.92
2019-05-07T11:26:10.642Z,25.89
2019-05-07T11:26:11.895Z,25.89
2019-05-07T11:27:08.007Z,25.98
2019-05-07T11:28:09.763Z,26.1
2019-05-07T11:29:12.075Z,26.05
2019-05-07T11:30:14.271Z,26.14
2019-05-07T11:31:16.609Z,25.98
2019-05-07T11:32:18.818Z,26.06
2019-05-07T11:33:21.208Z,26.16
2019-05-07T11:34:23.347Z,26.26
2019-05-07T11:35:25.631Z,26.18
2019-05-07T11:36:28.021Z,26.22
2019-05-07T11:37:30.165Z,26.2
2019-05-07T11:38:32.524Z,26.24
2019-05-07T11:39:35.745Z,26.17
2019-05-07T11:40:37.010Z,26.1
2019-05-07T11:41:39.252Z,26.45
2019-05-07T11:42:41.768Z,26.51
2019-05-07T11:43:43.829Z,26.23
2019-05-07T11:44:46.144Z,26.16
2019-05-07T11:45:48.491Z,26.19
2019-05-07T11:46:50.674Z,26.18
2019-05-07T11:47:52.955Z,26.02
2019-05-07T11:48:55.161Z,26.19
2019-05-07T11:49:57.484Z,26.1
2019-05-07T11:50:59.769Z,26.16
2019-05-07T11:52:02.073Z,26.18
2019-05-07T11:53:04.253Z,26.16
2019-05-07T11:54:07.348Z,26.3
2019-05-07T11:55:08.952Z,26.08
2019-05-07T11:56:12.544Z,26.31
2019-05-07T11:57:13.425Z,26.33
2019-05-07T11:58:15.607Z,26.21
2019-05-07T11:59:17.951Z,26.17
2019-05-07T12:00:20.147Z,26.16
2019-05-07T12:01:22.732Z,26.2
2019-05-07T12:02:24.746Z,26.32
2019-05-07T12:03:27.051Z,26.26
2019-05-07T12:04:32.166Z,26.18
2019-05-07T12:05:31.584Z,26.23
2019-05-07T12:06:33.911Z,26.26
2019-05-07T12:07:36.067Z,26.19
2019-05-07T12:08:38.331Z,26.07
2019-05-07T12:09:40.700Z,26.13
2019-05-07T12:10:42.936Z,26.11
2019-05-07T12:11:45.269Z,26.09
2019-05-07T12:12:47.514Z,26.03
2019-05-07T12:13:49.812Z,26.05
2019-05-07T12:14:52.162Z,26.05
2019-05-07T12:15:54.338Z,26.11
2019-05-07T12:16:56.674Z,26.16
2019-05-07T12:17:58.957Z,26.34
2019-05-07T12:19:01.173Z,26.21
2019-05-07T12:20:03.499Z,26.24
2019-05-07T12:21:05.711Z,25.99
2019-05-07T12:22:08.042Z,26.07
2019-05-07T12:23:10.494Z,25.99
2019-05-07T12:24:12.599Z,25.92
2019-05-07T12:25:14.862Z,25.94
2019-05-07T12:26:25.348Z,25.97
2019-05-07T12:27:19.351Z,25.93
2019-05-07T12:28:21.740Z,26.07
2019-05-07T12:29:23.985Z,26.35
2019-05-07T12:30:26.231Z,26.33
2019-05-07T12:31:28.795Z,26.24
2019-05-07T12:32:30.721Z,26.07
2019-05-07T12:33:33.003Z,25.94
2019-05-07T12:34:35.300Z,26.04
2019-05-07T12:35:37.839Z,26
2019-05-07T12:36:39.880Z,26.05
2019-05-07T12:37:42.253Z,26
2019-05-07T12:38:44.345Z,25.96
2019-05-07T12:39:46.594Z,25.91
2019-05-07T12:40:49.056Z,25.78
2019-05-07T12:41:51.291Z,25.73
2019-05-07T12:42:53.414Z,25.75
2019-05-07T12:43:55.982Z,25.79
2019-05-07T12:44:59.697Z,25.52
2019-05-07T12:46:00.391Z,25.52
2019-05-07T12:47:02.521Z,25.62
2019-05-07T12:48:04.923Z,25.45
2019-05-07T12:49:07.347Z,25.5
2019-05-07T12:50:09.348Z,25.55
2019-05-07T12:51:11.691Z,25.77
2019-05-07T12:52:13.934Z,25.76
2019-05-07T12:53:16.154Z,25.54
2019-05-07T12:54:18.559Z,25.59
2019-05-07T12:55:20.834Z,25.49
2019-05-07T12:56:23.678Z,25.37
2019-05-07T12:57:25.873Z,25.28
2019-05-07T12:58:27.662Z,25.45
2019-05-07T12:59:29.823Z,25.21
2019-05-07T13:00:32.353Z,25.59
2019-05-07T13:01:34.764Z,25.52
2019-05-07T13:02:36.740Z,25.45
2019-05-07T13:03:39.184Z,25.28
2019-05-07T13:04:41.291Z,25.56
2019-05-07T13:05:43.548Z,25.61
2019-05-07T13:06:45.846Z,25.52
2019-05-07T13:07:48.204Z,25.44
2019-05-07T13:08:50.372Z,25.52
2019-05-07T13:09:52.628Z,25.8
2019-05-07T13:10:54.983Z,25.52
2019-05-07T13:11:57.186Z,25.65
2019-05-07T13:13:00.203Z,25.53
2019-05-07T13:14:01.957Z,25.39
2019-05-07T13:15:04.028Z,25.32
2019-05-07T13:16:06.415Z,25.31
2019-05-07T13:17:08.631Z,25.39
2019-05-07T13:18:11.065Z,25.59
2019-05-07T13:19:13.176Z,25.43
2019-05-07T13:20:15.449Z,25.57
2019-05-07T13:21:17.729Z,25.49
2019-05-07T13:22:20.006Z,25.51
2019-05-07T13:23:22.393Z,25.65
2019-05-07T13:24:24.648Z,25.47
2019-05-07T13:25:28.229Z,25.41
2019-05-07T13:26:35.467Z,25.05
2019-05-07T13:27:32.143Z,24.97
2019-05-07T13:28:33.753Z,25.17
2019-05-07T13:29:35.908Z,25.14
2019-05-07T13:30:38.191Z,25.24